sensor_id;sensor_type;location;lat;lon;timestamp;P1;durP1;ratioP1;P2;durP2;ratioP2
75272;SDS011;63869;52.344;16.928;2023-04-15T00:01:46;12.93;;;6.60;;
75272;SDS011;63869;52.344;16.928;2023-04-15T00:04:11;17.75;;;6.40;;
75272;SDS011;63869;52.344;16.928;2023-04-15T00:06:37;9.07;;;6.05;;
75272;SDS011;63869;52.344;16.928;2023-04-15T00:09:03;9.60;;;6.15;;
75272;SDS011;63869;52.344;16.928;2023-04-15T00:11:29;11.45;;;6.10;;
75272;SDS011;63869;52.344;16.928;2023-04-15T00:13:54;10.75;;;7.22;;
75272;SDS011;63869;52.344;16.928;2023-04-15T00:16:21;9.73;;;6.72;;
75272;SDS011;63869;52.344;16.928;2023-04-15T00:19:15;9.75;;;6.35;;
75272;SDS011;63869;52.344;16.928;2023-04-15T00:21:40;11.10;;;6.57;;
75272;SDS011;63869;52.344;16.928;2023-04-15T00:24:05;12.88;;;6.38;;
75272;SDS011;63869;52.344;16.928;2023-04-15T00:26:31;9.73;;;6.40;;
75272;SDS011;63869;52.344;16.928;2023-04-15T00:28:57;9.77;;;6.32;;
75272;SDS011;63869;52.344;16.928;2023-04-15T00:31:22;10.60;;;6.80;;
75272;SDS011;63869;52.344;16.928;2023-04-15T00:33:47;13.57;;;6.80;;
75272;SDS011;63869;52.344;16.928;2023-04-15T00:36:12;9.68;;;6.40;;
75272;SDS011;63869;52.344;16.928;2023-04-15T00:38:38;10.70;;;6.72;;
75272;SDS011;63869;52.344;16.928;2023-04-15T00:41:03;14.43;;;6.57;;
75272;SDS011;63869;52.344;16.928;2023-04-15T00:43:29;10.82;;;6.95;;
75272;SDS011;63869;52.344;16.928;2023-04-15T00:45:54;10.60;;;6.70;;
75272;SDS011;63869;52.344;16.928;2023-04-15T00:48:22;12.25;;;6.72;;
75272;SDS011;63869;52.344;16.928;2023-04-15T00:50:48;12.73;;;7.05;;
75272;SDS011;63869;52.344;16.928;2023-04-15T00:53:14;10.00;;;6.40;;
75272;SDS011;63869;52.344;16.928;2023-04-15T00:55:39;8.88;;;6.50;;
75272;SDS011;63869;52.344;16.928;2023-04-15T00:58:04;11.80;;;6.65;;
75272;SDS011;63869;52.344;16.928;2023-04-15T01:00:30;17.13;;;7.50;;
75272;SDS011;63869;52.344;16.928;2023-04-15T01:02:55;11.75;;;6.97;;
75272;SDS011;63869;52.344;16.928;2023-04-15T01:05:20;10.60;;;6.78;;
75272;SDS011;63869;52.344;16.928;2023-04-15T01:07:47;13.70;;;7.15;;
75272;SDS011;63869;52.344;16.928;2023-04-15T01:10:12;12.00;;;7.13;;
75272;SDS011;63869;52.344;16.928;2023-04-15T01:12:38;11.80;;;7.30;;
75272;SDS011;63869;52.344;16.928;2023-04-15T01:15:04;14.85;;;7.65;;
75272;SDS011;63869;52.344;16.928;2023-04-15T01:17:30;12.75;;;8.05;;
75272;SDS011;63869;52.344;16.928;2023-04-15T01:19:55;16.02;;;8.95;;
75272;SDS011;63869;52.344;16.928;2023-04-15T01:22:24;15.40;;;8.27;;
75272;SDS011;63869;52.344;16.928;2023-04-15T01:25:00;13.63;;;7.32;;
75272;SDS011;63869;52.344;16.928;2023-04-15T01:27:32;11.30;;;7.22;;
75272;SDS011;63869;52.344;16.928;2023-04-15T01:29:59;12.10;;;6.85;;
75272;SDS011;63869;52.344;16.928;2023-04-15T01:32:25;11.07;;;7.10;;
75272;SDS011;63869;52.344;16.928;2023-04-15T01:34:51;12.35;;;6.95;;
75272;SDS011;63869;52.344;16.928;2023-04-15T01:37:16;10.15;;;6.25;;
75272;SDS011;63869;52.344;16.928;2023-04-15T01:39:41;12.13;;;6.90;;
75272;SDS011;63869;52.344;16.928;2023-04-15T01:42:06;12.07;;;6.90;;
75272;SDS011;63869;52.344;16.928;2023-04-15T01:44:32;13.43;;;7.15;;
75272;SDS011;63869;52.344;16.928;2023-04-15T01:46:57;13.10;;;7.18;;
75272;SDS011;63869;52.344;16.928;2023-04-15T01:49:23;11.48;;;6.68;;
75272;SDS011;63869;52.344;16.928;2023-04-15T01:51:48;11.75;;;7.05;;
75272;SDS011;63869;52.344;16.928;2023-04-15T01:54:14;11.10;;;7.13;;
75272;SDS011;63869;52.344;16.928;2023-04-15T01:56:39;12.10;;;7.32;;
75272;SDS011;63869;52.344;16.928;2023-04-15T01:59:05;11.57;;;6.90;;
75272;SDS011;63869;52.344;16.928;2023-04-15T02:01:30;10.38;;;6.65;;
75272;SDS011;63869;52.344;16.928;2023-04-15T02:03:55;11.75;;;6.72;;
75272;SDS011;63869;52.344;16.928;2023-04-15T02:06:21;12.95;;;6.78;;
75272;SDS011;63869;52.344;16.928;2023-04-15T02:08:46;11.90;;;6.40;;
75272;SDS011;63869;52.344;16.928;2023-04-15T02:11:11;11.57;;;6.53;;
75272;SDS011;63869;52.344;16.928;2023-04-15T02:13:37;11.48;;;6.78;;
75272;SDS011;63869;52.344;16.928;2023-04-15T02:16:02;9.63;;;6.22;;
75272;SDS011;63869;52.344;16.928;2023-04-15T02:18:28;9.15;;;6.20;;
75272;SDS011;63869;52.344;16.928;2023-04-15T02:20:53;10.05;;;6.25;;
75272;SDS011;63869;52.344;16.928;2023-04-15T02:23:21;11.10;;;6.35;;
75272;SDS011;63869;52.344;16.928;2023-04-15T02:25:46;9.55;;;6.05;;
75272;SDS011;63869;52.344;16.928;2023-04-15T02:28:12;11.48;;;6.18;;
75272;SDS011;63869;52.344;16.928;2023-04-15T02:30:37;11.30;;;5.70;;
75272;SDS011;63869;52.344;16.928;2023-04-15T02:33:04;9.88;;;5.97;;
75272;SDS011;63869;52.344;16.928;2023-04-15T02:35:31;9.55;;;6.22;;
75272;SDS011;63869;52.344;16.928;2023-04-15T02:37:56;9.93;;;6.15;;
75272;SDS011;63869;52.344;16.928;2023-04-15T02:40:22;9.15;;;6.05;;
75272;SDS011;63869;52.344;16.928;2023-04-15T02:42:47;10.75;;;6.10;;
75272;SDS011;63869;52.344;16.928;2023-04-15T02:45:13;10.95;;;6.20;;
75272;SDS011;63869;52.344;16.928;2023-04-15T02:47:38;8.95;;;5.95;;
75272;SDS011;63869;52.344;16.928;2023-04-15T02:50:08;10.77;;;6.20;;
75272;SDS011;63869;52.344;16.928;2023-04-15T02:52:36;9.75;;;6.03;;
75272;SDS011;63869;52.344;16.928;2023-04-15T02:55:02;10.18;;;6.13;;
75272;SDS011;63869;52.344;16.928;2023-04-15T02:57:28;9.82;;;6.50;;
75272;SDS011;63869;52.344;16.928;2023-04-15T02:59:53;10.73;;;6.07;;
75272;SDS011;63869;52.344;16.928;2023-04-15T03:02:19;9.73;;;6.07;;
75272;SDS011;63869;52.344;16.928;2023-04-15T03:04:44;9.20;;;6.22;;
75272;SDS011;63869;52.344;16.928;2023-04-15T03:07:10;9.95;;;6.00;;
75272;SDS011;63869;52.344;16.928;2023-04-15T03:09:35;9.35;;;6.05;;
75272;SDS011;63869;52.344;16.928;2023-04-15T03:12:01;11.60;;;6.03;;
75272;SDS011;63869;52.344;16.928;2023-04-15T03:14:26;10.65;;;5.93;;
75272;SDS011;63869;52.344;16.928;2023-04-15T03:16:51;10.55;;;5.88;;
75272;SDS011;63869;52.344;16.928;2023-04-15T03:19:17;8.88;;;6.13;;
75272;SDS011;63869;52.344;16.928;2023-04-15T03:21:42;9.90;;;6.15;;
75272;SDS011;63869;52.344;16.928;2023-04-15T03:24:07;9.27;;;6.00;;
75272;SDS011;63869;52.344;16.928;2023-04-15T03:26:33;11.00;;;6.10;;
75272;SDS011;63869;52.344;16.928;2023-04-15T03:28:58;9.40;;;5.93;;
75272;SDS011;63869;52.344;16.928;2023-04-15T03:31:23;9.10;;;6.10;;
75272;SDS011;63869;52.344;16.928;2023-04-15T03:33:49;11.45;;;6.03;;
75272;SDS011;63869;52.344;16.928;2023-04-15T03:36:14;9.07;;;5.97;;
75272;SDS011;63869;52.344;16.928;2023-04-15T03:38:40;9.48;;;6.07;;
75272;SDS011;63869;52.344;16.928;2023-04-15T03:41:06;9.48;;;6.45;;
75272;SDS011;63869;52.344;16.928;2023-04-15T03:43:31;12.00;;;6.32;;
75272;SDS011;63869;52.344;16.928;2023-04-15T03:45:57;11.02;;;6.60;;
75272;SDS011;63869;52.344;16.928;2023-04-15T03:48:22;10.60;;;6.15;;
75272;SDS011;63869;52.344;16.928;2023-04-15T03:50:47;12.40;;;6.35;;
75272;SDS011;63869;52.344;16.928;2023-04-15T03:53:13;10.63;;;6.53;;
75272;SDS011;63869;52.344;16.928;2023-04-15T03:55:39;10.10;;;6.40;;
75272;SDS011;63869;52.344;16.928;2023-04-15T03:58:04;11.55;;;6.50;;
75272;SDS011;63869;52.344;16.928;2023-04-15T04:00:30;10.40;;;6.82;;
75272;SDS011;63869;52.344;16.928;2023-04-15T04:02:57;11.23;;;6.72;;
75272;SDS011;63869;52.344;16.928;2023-04-15T04:05:22;10.00;;;6.28;;
75272;SDS011;63869;52.344;16.928;2023-04-15T04:07:47;10.25;;;6.43;;
75272;SDS011;63869;52.344;16.928;2023-04-15T04:10:13;10.52;;;6.68;;
75272;SDS011;63869;52.344;16.928;2023-04-15T04:12:38;9.93;;;6.60;;
75272;SDS011;63869;52.344;16.928;2023-04-15T04:15:03;9.95;;;6.65;;
75272;SDS011;63869;52.344;16.928;2023-04-15T04:17:29;10.35;;;6.85;;
75272;SDS011;63869;52.344;16.928;2023-04-15T04:19:55;10.68;;;6.60;;
75272;SDS011;63869;52.344;16.928;2023-04-15T04:22:23;11.50;;;7.03;;
75272;SDS011;63869;52.344;16.928;2023-04-15T04:24:49;9.50;;;6.82;;
75272;SDS011;63869;52.344;16.928;2023-04-15T04:27:14;11.75;;;6.63;;
75272;SDS011;63869;52.344;16.928;2023-04-15T04:29:40;12.57;;;7.15;;
75272;SDS011;63869;52.344;16.928;2023-04-15T04:32:05;10.77;;;6.95;;
75272;SDS011;63869;52.344;16.928;2023-04-15T04:34:31;10.25;;;6.97;;
75272;SDS011;63869;52.344;16.928;2023-04-15T04:36:56;11.02;;;7.07;;
75272;SDS011;63869;52.344;16.928;2023-04-15T04:39:21;12.32;;;6.97;;
75272;SDS011;63869;52.344;16.928;2023-04-15T04:41:47;11.15;;;6.72;;
75272;SDS011;63869;52.344;16.928;2023-04-15T04:44:12;9.80;;;6.88;;
75272;SDS011;63869;52.344;16.928;2023-04-15T04:46:37;11.38;;;7.10;;
75272;SDS011;63869;52.344;16.928;2023-04-15T04:49:03;12.13;;;7.18;;
75272;SDS011;63869;52.344;16.928;2023-04-15T04:51:28;10.35;;;6.97;;
75272;SDS011;63869;52.344;16.928;2023-04-15T04:53:53;11.95;;;7.60;;
75272;SDS011;63869;52.344;16.928;2023-04-15T04:56:20;10.38;;;7.18;;
75272;SDS011;63869;52.344;16.928;2023-04-15T04:58:45;12.88;;;8.13;;
75272;SDS011;63869;52.344;16.928;2023-04-15T05:01:10;13.15;;;8.65;;
75272;SDS011;63869;52.344;16.928;2023-04-15T05:03:36;13.95;;;9.65;;
75272;SDS011;63869;52.344;16.928;2023-04-15T05:06:02;12.13;;;8.10;;
75272;SDS011;63869;52.344;16.928;2023-04-15T05:08:30;15.98;;;9.10;;
75272;SDS011;63869;52.344;16.928;2023-04-15T05:10:55;15.60;;;9.35;;
75272;SDS011;63869;52.344;16.928;2023-04-15T05:13:20;13.20;;;8.95;;
75272;SDS011;63869;52.344;16.928;2023-04-15T05:15:46;14.07;;;9.40;;
75272;SDS011;63869;52.344;16.928;2023-04-15T05:18:11;17.50;;;9.75;;
75272;SDS011;63869;52.344;16.928;2023-04-15T05:20:37;14.43;;;9.52;;
75272;SDS011;63869;52.344;16.928;2023-04-15T05:23:02;17.02;;;9.70;;
75272;SDS011;63869;52.344;16.928;2023-04-15T05:25:27;14.57;;;9.73;;
75272;SDS011;63869;52.344;16.928;2023-04-15T05:27:53;14.60;;;9.88;;
75272;SDS011;63869;52.344;16.928;2023-04-15T05:30:18;14.98;;;10.18;;
75272;SDS011;63869;52.344;16.928;2023-04-15T05:32:44;15.07;;;9.20;;
75272;SDS011;63869;52.344;16.928;2023-04-15T05:35:09;16.77;;;10.00;;
75272;SDS011;63869;52.344;16.928;2023-04-15T05:37:34;15.95;;;10.20;;
75272;SDS011;63869;52.344;16.928;2023-04-15T05:40:00;16.23;;;9.77;;
75272;SDS011;63869;52.344;16.928;2023-04-15T05:42:25;15.52;;;9.82;;
75272;SDS011;63869;52.344;16.928;2023-04-15T05:44:50;15.90;;;9.48;;
75272;SDS011;63869;52.344;16.928;2023-04-15T05:47:16;17.80;;;9.27;;
75272;SDS011;63869;52.344;16.928;2023-04-15T05:49:41;14.82;;;9.15;;
75272;SDS011;63869;52.344;16.928;2023-04-15T05:52:06;13.05;;;9.27;;
75272;SDS011;63869;52.344;16.928;2023-04-15T05:54:32;12.10;;;8.57;;
75272;SDS011;63869;52.344;16.928;2023-04-15T05:56:57;17.60;;;9.55;;
75272;SDS011;63869;52.344;16.928;2023-04-15T05:59:22;14.35;;;9.02;;
75272;SDS011;63869;52.344;16.928;2023-04-15T06:01:48;12.80;;;9.15;;
75272;SDS011;63869;52.344;16.928;2023-04-15T06:04:13;14.38;;;9.32;;
75272;SDS011;63869;52.344;16.928;2023-04-15T06:06:39;14.68;;;9.75;;
75272;SDS011;63869;52.344;16.928;2023-04-15T06:09:05;15.88;;;10.00;;
75272;SDS011;63869;52.344;16.928;2023-04-15T06:11:30;15.35;;;9.23;;
75272;SDS011;63869;52.344;16.928;2023-04-15T06:13:55;13.27;;;9.25;;
75272;SDS011;63869;52.344;16.928;2023-04-15T06:16:21;12.15;;;8.82;;
75272;SDS011;63869;52.344;16.928;2023-04-15T06:18:47;16.25;;;9.80;;
75272;SDS011;63869;52.344;16.928;2023-04-15T06:21:12;13.73;;;9.02;;
75272;SDS011;63869;52.344;16.928;2023-04-15T06:23:38;13.68;;;9.23;;
75272;SDS011;63869;52.344;16.928;2023-04-15T06:26:05;14.95;;;9.23;;
75272;SDS011;63869;52.344;16.928;2023-04-15T06:28:30;15.48;;;9.65;;
75272;SDS011;63869;52.344;16.928;2023-04-15T06:30:57;13.90;;;9.27;;
75272;SDS011;63869;52.344;16.928;2023-04-15T06:33:22;13.50;;;9.57;;
75272;SDS011;63869;52.344;16.928;2023-04-15T06:35:48;16.50;;;9.80;;
75272;SDS011;63869;52.344;16.928;2023-04-15T06:38:16;15.15;;;9.80;;
75272;SDS011;63869;52.344;16.928;2023-04-15T06:40:41;16.58;;;9.70;;
75272;SDS011;63869;52.344;16.928;2023-04-15T06:43:07;15.35;;;9.55;;
75272;SDS011;63869;52.344;16.928;2023-04-15T06:45:33;14.32;;;9.50;;
75272;SDS011;63869;52.344;16.928;2023-04-15T06:47:58;15.35;;;8.82;;
75272;SDS011;63869;52.344;16.928;2023-04-15T06:50:24;14.85;;;9.23;;
75272;SDS011;63869;52.344;16.928;2023-04-15T06:52:49;15.52;;;9.55;;
75272;SDS011;63869;52.344;16.928;2023-04-15T06:55:14;13.30;;;9.10;;
75272;SDS011;63869;52.344;16.928;2023-04-15T06:57:40;13.98;;;8.88;;
75272;SDS011;63869;52.344;16.928;2023-04-15T07:00:05;13.27;;;8.57;;
75272;SDS011;63869;52.344;16.928;2023-04-15T07:02:31;13.00;;;8.10;;
75272;SDS011;63869;52.344;16.928;2023-04-15T07:04:57;11.50;;;8.35;;
75272;SDS011;63869;52.344;16.928;2023-04-15T07:07:22;11.20;;;7.85;;
75272;SDS011;63869;52.344;16.928;2023-04-15T07:09:48;11.85;;;8.60;;
75272;SDS011;63869;52.344;16.928;2023-04-15T07:12:13;12.80;;;8.77;;
75272;SDS011;63869;52.344;16.928;2023-04-15T07:14:38;11.02;;;8.45;;
75272;SDS011;63869;52.344;16.928;2023-04-15T07:17:04;10.52;;;8.13;;
75272;SDS011;63869;52.344;16.928;2023-04-15T07:19:29;11.68;;;8.02;;
75272;SDS011;63869;52.344;16.928;2023-04-15T07:21:54;11.60;;;7.80;;
75272;SDS011;63869;52.344;16.928;2023-04-15T07:24:19;13.38;;;8.15;;
75272;SDS011;63869;52.344;16.928;2023-04-15T07:26:47;12.52;;;8.68;;
75272;SDS011;63869;52.344;16.928;2023-04-15T07:29:12;13.30;;;8.75;;
75272;SDS011;63869;52.344;16.928;2023-04-15T07:31:38;13.23;;;8.68;;
75272;SDS011;63869;52.344;16.928;2023-04-15T07:34:05;14.23;;;10.07;;
75272;SDS011;63869;52.344;16.928;2023-04-15T07:36:31;13.70;;;9.50;;
75272;SDS011;63869;52.344;16.928;2023-04-15T07:38:56;15.40;;;9.95;;
75272;SDS011;63869;52.344;16.928;2023-04-15T07:41:22;16.42;;;10.02;;
75272;SDS011;63869;52.344;16.928;2023-04-15T07:43:47;14.25;;;9.38;;
75272;SDS011;63869;52.344;16.928;2023-04-15T07:46:13;15.88;;;9.65;;
75272;SDS011;63869;52.344;16.928;2023-04-15T07:48:38;15.60;;;9.73;;
75272;SDS011;63869;52.344;16.928;2023-04-15T07:51:03;14.57;;;9.98;;
75272;SDS011;63869;52.344;16.928;2023-04-15T07:53:29;14.88;;;10.07;;
75272;SDS011;63869;52.344;16.928;2023-04-15T07:55:54;14.55;;;10.05;;
75272;SDS011;63869;52.344;16.928;2023-04-15T07:58:19;14.45;;;10.27;;
75272;SDS011;63869;52.344;16.928;2023-04-15T08:00:45;16.27;;;10.13;;
75272;SDS011;63869;52.344;16.928;2023-04-15T08:03:10;15.10;;;10.52;;
75272;SDS011;63869;52.344;16.928;2023-04-15T08:05:36;14.13;;;9.88;;
75272;SDS011;63869;52.344;16.928;2023-04-15T08:08:01;18.02;;;10.27;;
75272;SDS011;63869;52.344;16.928;2023-04-15T08:10:28;15.30;;;10.38;;
75272;SDS011;63869;52.344;16.928;2023-04-15T08:12:53;13.68;;;9.32;;
75272;SDS011;63869;52.344;16.928;2023-04-15T08:15:19;12.23;;;8.85;;
75272;SDS011;63869;52.344;16.928;2023-04-15T08:17:44;12.23;;;8.43;;
75272;SDS011;63869;52.344;16.928;2023-04-15T08:20:10;16.70;;;9.75;;
75272;SDS011;63869;52.344;16.928;2023-04-15T08:22:36;12.80;;;9.00;;
75272;SDS011;63869;52.344;16.928;2023-04-15T08:25:01;12.52;;;8.75;;
75272;SDS011;63869;52.344;16.928;2023-04-15T08:27:29;11.30;;;8.20;;
75272;SDS011;63869;52.344;16.928;2023-04-15T08:29:54;11.38;;;7.97;;
75272;SDS011;63869;52.344;16.928;2023-04-15T08:32:19;11.23;;;7.93;;
75272;SDS011;63869;52.344;16.928;2023-04-15T08:34:45;12.93;;;7.88;;
75272;SDS011;63869;52.344;16.928;2023-04-15T08:37:10;11.02;;;7.90;;
75272;SDS011;63869;52.344;16.928;2023-04-15T08:39:35;11.00;;;7.55;;
75272;SDS011;63869;52.344;16.928;2023-04-15T08:42:02;10.50;;;7.97;;
75272;SDS011;63869;52.344;16.928;2023-04-15T08:44:34;11.48;;;8.10;;
75272;SDS011;63869;52.344;16.928;2023-04-15T08:47:01;12.88;;;8.68;;
75272;SDS011;63869;52.344;16.928;2023-04-15T08:49:27;12.60;;;8.23;;
75272;SDS011;63869;52.344;16.928;2023-04-15T08:51:53;10.88;;;8.05;;
75272;SDS011;63869;52.344;16.928;2023-04-15T08:54:20;13.52;;;8.20;;
75272;SDS011;63869;52.344;16.928;2023-04-15T08:56:46;12.32;;;8.32;;
75272;SDS011;63869;52.344;16.928;2023-04-15T08:59:13;10.90;;;8.38;;
75272;SDS011;63869;52.344;16.928;2023-04-15T09:01:39;10.40;;;8.10;;
75272;SDS011;63869;52.344;16.928;2023-04-15T09:04:04;10.60;;;7.82;;
75272;SDS011;63869;52.344;16.928;2023-04-15T09:06:31;9.45;;;7.53;;
75272;SDS011;63869;52.344;16.928;2023-04-15T09:08:57;10.05;;;7.47;;
75272;SDS011;63869;52.344;16.928;2023-04-15T09:11:22;12.23;;;8.57;;
75272;SDS011;63869;52.344;16.928;2023-04-15T09:13:48;10.38;;;7.55;;
75272;SDS011;63869;52.344;16.928;2023-04-15T09:16:14;11.02;;;7.93;;
75272;SDS011;63869;52.344;16.928;2023-04-15T09:18:39;14.45;;;8.57;;
75272;SDS011;63869;52.344;16.928;2023-04-15T09:23:35;10.68;;;8.45;;
75272;SDS011;63869;52.344;16.928;2023-04-15T09:26:01;12.45;;;8.80;;
75272;SDS011;63869;52.344;16.928;2023-04-15T09:28:28;11.18;;;8.77;;
75272;SDS011;63869;52.344;16.928;2023-04-15T09:30:58;11.43;;;7.40;;
75272;SDS011;63869;52.344;16.928;2023-04-15T09:33:25;6.63;;;4.07;;
75272;SDS011;63869;52.344;16.928;2023-04-15T09:35:55;5.82;;;4.13;;
75272;SDS011;63869;52.344;16.928;2023-04-15T09:38:23;7.60;;;4.07;;
75272;SDS011;63869;52.344;16.928;2023-04-15T09:40:48;4.85;;;3.20;;
75272;SDS011;63869;52.344;16.928;2023-04-15T09:43:13;13.02;;;5.60;;
75272;SDS011;63869;52.344;16.928;2023-04-15T09:45:46;5.68;;;3.30;;
75272;SDS011;63869;52.344;16.928;2023-04-15T09:50:52;6.20;;;3.70;;
75272;SDS011;63869;52.344;16.928;2023-04-15T09:53:22;5.57;;;3.42;;
75272;SDS011;63869;52.344;16.928;2023-04-15T09:58:19;6.07;;;3.15;;
75272;SDS011;63869;52.344;16.928;2023-04-15T10:00:46;5.82;;;3.33;;
75272;SDS011;63869;52.344;16.928;2023-04-15T10:03:14;9.85;;;4.47;;
75272;SDS011;63869;52.344;16.928;2023-04-15T10:05:44;10.60;;;4.95;;
75272;SDS011;63869;52.344;16.928;2023-04-15T10:08:10;5.13;;;3.45;;
75272;SDS011;63869;52.344;16.928;2023-04-15T10:10:36;6.38;;;2.90;;
75272;SDS011;63869;52.344;16.928;2023-04-15T10:13:02;5.30;;;3.55;;
75272;SDS011;63869;52.344;16.928;2023-04-15T10:15:28;3.97;;;2.88;;
75272;SDS011;63869;52.344;16.928;2023-04-15T10:17:56;4.32;;;2.88;;
75272;SDS011;63869;52.344;16.928;2023-04-15T10:20:24;4.03;;;2.63;;
75272;SDS011;63869;52.344;16.928;2023-04-15T10:22:50;4.07;;;2.80;;
75272;SDS011;63869;52.344;16.928;2023-04-15T10:25:17;4.40;;;3.00;;
75272;SDS011;63869;52.344;16.928;2023-04-15T10:27:43;4.20;;;2.97;;
75272;SDS011;63869;52.344;16.928;2023-04-15T10:30:10;14.68;;;6.78;;
75272;SDS011;63869;52.344;16.928;2023-04-15T10:32:37;6.15;;;2.97;;
75272;SDS011;63869;52.344;16.928;2023-04-15T10:35:06;4.63;;;3.25;;
75272;SDS011;63869;52.344;16.928;2023-04-15T10:37:37;4.68;;;3.10;;
75272;SDS011;63869;52.344;16.928;2023-04-15T10:42:56;6.03;;;3.60;;
75272;SDS011;63869;52.344;16.928;2023-04-15T10:45:24;6.07;;;3.53;;
75272;SDS011;63869;52.344;16.928;2023-04-15T10:47:55;4.47;;;3.28;;
75272;SDS011;63869;52.344;16.928;2023-04-15T10:50:21;6.15;;;4.10;;
75272;SDS011;63869;52.344;16.928;2023-04-15T10:52:49;8.15;;;4.50;;
75272;SDS011;63869;52.344;16.928;2023-04-15T10:55:20;7.25;;;4.45;;
75272;SDS011;63869;52.344;16.928;2023-04-15T10:57:50;8.70;;;4.40;;
75272;SDS011;63869;52.344;16.928;2023-04-15T11:00:29;8.40;;;4.32;;
75272;SDS011;63869;52.344;16.928;2023-04-15T11:03:03;6.43;;;4.10;;
75272;SDS011;63869;52.344;16.928;2023-04-15T11:08:05;6.95;;;4.13;;
75272;SDS011;63869;52.344;16.928;2023-04-15T11:12:58;6.03;;;3.78;;
75272;SDS011;63869;52.344;16.928;2023-04-15T11:15:38;4.80;;;3.45;;
75272;SDS011;63869;52.344;16.928;2023-04-15T11:20:42;4.45;;;2.72;;
75272;SDS011;63869;52.344;16.928;2023-04-15T11:23:11;5.72;;;3.13;;
75272;SDS011;63869;52.344;16.928;2023-04-15T11:25:38;3.10;;;2.20;;
75272;SDS011;63869;52.344;16.928;2023-04-15T11:28:03;11.88;;;4.47;;
75272;SDS011;63869;52.344;16.928;2023-04-15T11:30:33;9.55;;;4.50;;
75272;SDS011;63869;52.344;16.928;2023-04-15T11:33:00;7.43;;;3.60;;
75272;SDS011;63869;52.344;16.928;2023-04-15T11:35:28;5.63;;;3.53;;
75272;SDS011;63869;52.344;16.928;2023-04-15T11:37:53;6.57;;;3.42;;
75272;SDS011;63869;52.344;16.928;2023-04-15T11:40:23;5.43;;;3.38;;
75272;SDS011;63869;52.344;16.928;2023-04-15T11:48:21;4.90;;;3.03;;
75272;SDS011;63869;52.344;16.928;2023-04-15T11:50:58;5.28;;;3.20;;
75272;SDS011;63869;52.344;16.928;2023-04-15T11:56:24;5.10;;;3.40;;
75272;SDS011;63869;52.344;16.928;2023-04-15T11:58:51;7.13;;;3.63;;
75272;SDS011;63869;52.344;16.928;2023-04-15T12:01:19;4.47;;;3.25;;
75272;SDS011;63869;52.344;16.928;2023-04-15T12:03:48;6.50;;;5.32;;
75272;SDS011;63869;52.344;16.928;2023-04-15T12:06:30;4.45;;;3.28;;
75272;SDS011;63869;52.344;16.928;2023-04-15T12:08:58;10.50;;;5.30;;
75272;SDS011;63869;52.344;16.928;2023-04-15T12:11:37;5.63;;;4.70;;
75272;SDS011;63869;52.344;16.928;2023-04-15T12:16:50;15.43;;;7.10;;
75272;SDS011;63869;52.344;16.928;2023-04-15T12:19:24;6.25;;;3.45;;
75272;SDS011;63869;52.344;16.928;2023-04-15T12:21:59;5.07;;;3.50;;
75272;SDS011;63869;52.344;16.928;2023-04-15T12:24:33;9.77;;;4.78;;
75272;SDS011;63869;52.344;16.928;2023-04-15T12:27:07;16.45;;;6.15;;
75272;SDS011;63869;52.344;16.928;2023-04-15T12:29:34;7.35;;;4.07;;
75272;SDS011;63869;52.344;16.928;2023-04-15T12:37:05;13.07;;;7.57;;
75272;SDS011;63869;52.344;16.928;2023-04-15T12:39:43;15.30;;;9.52;;
75272;SDS011;63869;52.344;16.928;2023-04-15T12:42:10;11.32;;;6.55;;
75272;SDS011;63869;52.344;16.928;2023-04-15T12:44:36;5.53;;;4.05;;
75272;SDS011;63869;52.344;16.928;2023-04-15T12:47:02;6.05;;;3.63;;
75272;SDS011;63869;52.344;16.928;2023-04-15T12:49:28;7.65;;;4.22;;
75272;SDS011;63869;52.344;16.928;2023-04-15T12:51:57;4.93;;;3.40;;
75272;SDS011;63869;52.344;16.928;2023-04-15T12:54:24;5.78;;;4.18;;
75272;SDS011;63869;52.344;16.928;2023-04-15T12:56:50;5.45;;;3.35;;
75272;SDS011;63869;52.344;16.928;2023-04-15T12:59:16;9.30;;;4.57;;
75272;SDS011;63869;52.344;16.928;2023-04-15T13:01:42;7.18;;;4.20;;
75272;SDS011;63869;52.344;16.928;2023-04-15T13:04:08;4.78;;;3.08;;
75272;SDS011;63869;52.344;16.928;2023-04-15T13:06:34;5.82;;;3.40;;
75272;SDS011;63869;52.344;16.928;2023-04-15T13:08:59;6.07;;;3.50;;
75272;SDS011;63869;52.344;16.928;2023-04-15T13:11:25;6.53;;;3.38;;
75272;SDS011;63869;52.344;16.928;2023-04-15T13:13:51;5.00;;;3.75;;
75272;SDS011;63869;52.344;16.928;2023-04-15T13:16:17;5.00;;;3.30;;
75272;SDS011;63869;52.344;16.928;2023-04-15T13:18:42;4.97;;;3.15;;
75272;SDS011;63869;52.344;16.928;2023-04-15T13:21:09;4.43;;;3.50;;
75272;SDS011;63869;52.344;16.928;2023-04-15T13:23:34;5.07;;;3.65;;
75272;SDS011;63869;52.344;16.928;2023-04-15T13:26:00;5.43;;;3.83;;
75272;SDS011;63869;52.344;16.928;2023-04-15T13:28:25;8.05;;;3.50;;
75272;SDS011;63869;52.344;16.928;2023-04-15T13:30:51;5.55;;;3.80;;
75272;SDS011;63869;52.344;16.928;2023-04-15T13:33:16;5.72;;;3.80;;
75272;SDS011;63869;52.344;16.928;2023-04-15T13:35:42;5.97;;;4.20;;
75272;SDS011;63869;52.344;16.928;2023-04-15T13:38:08;6.10;;;4.13;;
75272;SDS011;63869;52.344;16.928;2023-04-15T13:40:33;5.43;;;3.92;;
75272;SDS011;63869;52.344;16.928;2023-04-15T13:42:58;5.30;;;3.80;;
75272;SDS011;63869;52.344;16.928;2023-04-15T13:45:24;9.55;;;4.47;;
75272;SDS011;63869;52.344;16.928;2023-04-15T13:47:50;6.05;;;3.80;;
75272;SDS011;63869;52.344;16.928;2023-04-15T13:50:15;5.85;;;4.28;;
75272;SDS011;63869;52.344;16.928;2023-04-15T13:52:41;6.47;;;4.15;;
75272;SDS011;63869;52.344;16.928;2023-04-15T13:55:06;6.97;;;3.80;;
75272;SDS011;63869;52.344;16.928;2023-04-15T13:57:32;6.53;;;4.13;;
75272;SDS011;63869;52.344;16.928;2023-04-15T13:59:57;23.75;;;19.23;;
75272;SDS011;63869;52.344;16.928;2023-04-15T14:02:22;25.00;;;21.77;;
75272;SDS011;63869;52.344;16.928;2023-04-15T14:04:48;5.03;;;3.63;;
75272;SDS011;63869;52.344;16.928;2023-04-15T14:07:13;5.65;;;3.97;;
75272;SDS011;63869;52.344;16.928;2023-04-15T14:09:41;5.32;;;3.50;;
75272;SDS011;63869;52.344;16.928;2023-04-15T14:12:07;5.15;;;3.33;;
75272;SDS011;63869;52.344;16.928;2023-04-15T14:14:33;5.05;;;3.30;;
75272;SDS011;63869;52.344;16.928;2023-04-15T14:16:59;4.95;;;3.50;;
75272;SDS011;63869;52.344;16.928;2023-04-15T14:19:24;7.07;;;3.50;;
75272;SDS011;63869;52.344;16.928;2023-04-15T14:21:50;5.40;;;3.40;;
75272;SDS011;63869;52.344;16.928;2023-04-15T14:24:15;4.05;;;2.90;;
75272;SDS011;63869;52.344;16.928;2023-04-15T14:26:41;5.47;;;3.08;;
75272;SDS011;63869;52.344;16.928;2023-04-15T14:29:07;4.25;;;2.83;;
75272;SDS011;63869;52.344;16.928;2023-04-15T14:31:33;4.65;;;3.03;;
75272;SDS011;63869;52.344;16.928;2023-04-15T14:33:58;4.13;;;3.10;;
75272;SDS011;63869;52.344;16.928;2023-04-15T14:36:23;5.47;;;3.20;;
75272;SDS011;63869;52.344;16.928;2023-04-15T14:38:49;5.72;;;2.95;;
75272;SDS011;63869;52.344;16.928;2023-04-15T14:41:15;4.05;;;2.97;;
75272;SDS011;63869;52.344;16.928;2023-04-15T14:43:41;3.83;;;2.53;;
75272;SDS011;63869;52.344;16.928;2023-04-15T14:46:06;2.85;;;2.28;;
75272;SDS011;63869;52.344;16.928;2023-04-15T14:48:32;4.28;;;2.60;;
75272;SDS011;63869;52.344;16.928;2023-04-15T14:50:58;4.07;;;2.60;;
75272;SDS011;63869;52.344;16.928;2023-04-15T14:53:23;3.45;;;2.50;;
75272;SDS011;63869;52.344;16.928;2023-04-15T14:55:49;3.30;;;2.40;;